Time;durP1;ratioP1;P1;durP2;ratioP2;P2;SDS_P1;SDS_P2;PMS_P1;PMS_P2;Temp;Humidity;BMP_temperature;BMP_pressure;BME280_temperature;BME280_humidity;BME280_pressure;Samples;Min_cycle;Max_cycle;Signal;HPM_P1;HPM_P2
2022/07/05 00:02:24;;;;;;;2.22;2.03;;;13.20;99.90;;;;;;4920227;29;20051;-73
2022/07/05 00:04:50;;;;;;;2.35;2.05;;;13.20;99.90;;;;;;4919506;28;20050;-74
2022/07/05 00:07:19;;;;;;;2.38;2.13;;;12.90;99.90;;;;;;4912426;29;20161;-71
2022/07/05 00:09:52;;;;;;;3.17;2.05;;;13.20;99.90;;;;;;4916891;29;20047;-73
2022/07/05 00:12:18;;;;;;;;;;;13.20;99.90;;;;;;4923561;28;20819;-72
2022/07/05 00:14:46;;;;;;;2.33;1.98;;;13.10;99.90;;;;;;4922271;29;19954;-72
2022/07/05 00:17:12;;;;;;;2.20;2.00;;;13.10;99.90;;;;;;4922851;29;20090;-72
2022/07/05 00:19:39;;;;;;;3.88;1.98;;;12.80;99.90;;;;;;4914628;29;20047;-72
2022/07/05 00:22:05;;;;;;;1.98;1.73;;;13.10;99.90;;;;;;4921094;29;20045;-72
2022/07/05 00:24:31;;;;;;;2.80;1.73;;;13.10;99.90;;;;;;4913336;29;20051;-71
2022/07/05 00:26:56;;;;;;;2.42;1.90;;;13.10;99.90;;;;;;4922151;29;20110;-73
2022/07/05 00:29:22;;;;;;;3.78;2.20;;;13.00;99.90;;;;;;4914486;29;20052;-71
2022/07/05 00:31:48;;;;;;;2.60;1.60;;;13.00;99.90;;;;;;4907658;29;20051;-74
2022/07/05 00:34:14;;;;;;;2.80;1.70;;;12.90;99.90;;;;;;4911613;29;20086;-72
2022/07/05 00:36:40;;;;;;;2.10;1.90;;;12.80;99.90;;;;;;4913271;29;20058;-73
2022/07/05 00:39:06;;;;;;;3.85;2.30;;;12.80;99.90;;;;;;4918976;29;20575;-71
2022/07/05 00:41:32;;;;;;;4.45;2.40;;;12.80;99.90;;;;;;4916692;29;20040;-71
2022/07/05 00:44:00;;;;;;;3.55;2.28;;;12.90;99.90;;;;;;4915842;29;20044;-73
2022/07/05 00:46:27;;;;;;;2.88;2.40;;;12.80;99.90;;;;;;4925753;29;20162;-71
2022/07/05 00:48:54;;;;;;;2.33;2.13;;;12.80;99.90;;;;;;4908765;29;20048;-73
2022/07/05 00:51:21;;;;;;;2.38;2.17;;;12.80;99.90;;;;;;4908421;29;20118;-71
2022/07/05 00:53:47;;;;;;;2.38;2.10;;;12.80;99.90;;;;;;4947229;28;20499;-71
2022/07/05 00:56:14;;;;;;;2.67;2.13;;;13.10;99.90;;;;;;4916607;28;20052;-73
2022/07/05 00:58:40;;;;;;;3.50;2.22;;;12.80;99.90;;;;;;4926048;29;20434;-71
2022/07/05 01:01:08;;;;;;;2.55;2.22;;;12.80;99.90;;;;;;4921036;28;20519;-71
2022/07/05 01:03:34;;;;;;;2.95;2.65;;;12.80;99.90;;;;;;4920492;29;20055;-72
2022/07/05 01:06:06;;;;;;;2.47;2.33;;;12.80;99.90;;;;;;4909212;29;20063;-71
2022/07/05 01:08:35;;;;;;;2.50;2.10;;;12.70;99.90;;;;;;4913399;29;20095;-71
2022/07/05 01:11:01;;;;;;;2.85;2.30;;;12.60;99.90;;;;;;4912965;29;20519;-71
2022/07/05 01:13:27;;;;;;;3.80;2.45;;;12.60;99.90;;;;;;4918553;29;20613;-71
2022/07/05 01:15:54;;;;;;;2.13;1.80;;;12.50;99.90;;;;;;4911645;29;20055;-74
2022/07/05 01:18:21;;;;;;;3.28;2.22;;;12.50;99.90;;;;;;4920265;29;20222;-71
2022/07/05 01:20:50;;;;;;;4.78;2.33;;;12.50;99.90;;;;;;4919206;29;20867;-72
2022/07/05 01:23:18;;;;;;;3.05;2.40;;;12.50;99.90;;;;;;4931095;29;20825;-74
2022/07/05 01:25:45;;;;;;;2.50;2.20;;;12.50;99.90;;;;;;4923868;28;20047;-72
2022/07/05 01:28:11;;;;;;;3.33;3.03;;;12.50;99.90;;;;;;4923115;29;20695;-72
2022/07/05 01:30:39;;;;;;;3.60;2.80;;;12.50;99.90;;;;;;4916914;29;20079;-72
2022/07/05 01:33:07;;;;;;;4.68;2.50;;;12.50;99.90;;;;;;4918568;29;20087;-72
2022/07/05 01:35:33;;;;;;;2.03;1.83;;;12.50;99.90;;;;;;4929607;29;20128;-71
2022/07/05 01:37:59;;;;;;;2.53;2.15;;;12.40;99.90;;;;;;4924664;28;20098;-72
2022/07/05 01:40:25;;;;;;;2.80;2.05;;;12.40;99.90;;;;;;4918107;29;20634;-71
2022/07/05 01:42:51;;;;;;;2.40;2.05;;;12.40;99.90;;;;;;4910877;29;20830;-71
2022/07/05 01:45:39;;;;;;;2.58;1.85;;;12.30;99.90;;;;;;4913041;29;20591;-72
2022/07/05 01:48:06;;;;;;;2.40;2.13;;;12.30;99.90;;;;;;4902309;29;20905;-74
2022/07/05 01:50:38;;;;;;;1.98;1.80;;;12.30;99.90;;;;;;4915213;28;20099;-72
2022/07/05 01:53:04;;;;;;;3.75;1.77;;;12.20;99.90;;;;;;4913102;29;20167;-73
2022/07/05 01:55:30;;;;;;;2.58;2.03;;;12.30;99.90;;;;;;4906515;28;20051;-73
2022/07/05 01:57:57;;;;;;;4.03;2.13;;;12.30;99.90;;;;;;4918403;29;20922;-73
2022/07/05 02:00:22;;;;;;;2.40;1.90;;;12.30;99.90;;;;;;4937122;28;20056;-72
2022/07/05 02:02:49;;;;;;;2.30;2.05;;;12.30;99.90;;;;;;4914438;29;20059;-74
2022/07/05 02:05:15;;;;;;;3.25;2.45;;;12.30;99.90;;;;;;4915882;29;20075;-73
2022/07/05 02:07:50;;;;;;;2.40;2.20;;;12.30;99.90;;;;;;4912730;29;21075;-72
2022/07/05 02:10:16;;;;;;;3.78;2.63;;;12.30;99.90;;;;;;4922847;29;20048;-74
2022/07/05 02:12:42;;;;;;;2.40;2.17;;;12.20;99.90;;;;;;4918745;29;20052;-71
2022/07/05 02:15:08;;;;;;;2.00;1.83;;;12.20;99.90;;;;;;4916878;29;20997;-72
2022/07/05 02:17:34;;;;;;;2.70;1.95;;;12.20;99.90;;;;;;4909371;29;20059;-71
2022/07/05 02:20:00;;;;;;;2.20;1.73;;;12.20;99.90;;;;;;4923494;29;20496;-73
2022/07/05 02:22:25;;;;;;;3.45;2.67;;;12.20;99.90;;;;;;4915080;29;20048;-72
2022/07/05 02:24:51;;;;;;;2.28;2.08;;;12.20;99.90;;;;;;4922044;29;20072;-73
2022/07/05 02:27:17;;;;;;;2.88;2.50;;;12.20;99.90;;;;;;4929047;29;20059;-74
2022/07/05 02:29:43;;;;;;;3.15;2.50;;;12.20;99.90;;;;;;4920276;28;20054;-72
2022/07/05 02:32:09;;;;;;;3.38;2.40;;;12.20;99.90;;;;;;4923237;29;20047;-73
2022/07/05 02:34:35;;;;;;;4.88;2.95;;;12.10;99.90;;;;;;4923754;29;20090;-73
2022/07/05 02:37:00;;;;;;;3.88;2.60;;;12.10;99.90;;;;;;4922559;29;20410;-74
2022/07/05 02:39:26;;;;;;;3.25;2.22;;;12.00;99.90;;;;;;4918826;29;20059;-72
2022/07/05 02:41:51;;;;;;;3.70;2.65;;;12.00;99.90;;;;;;4925179;29;20792;-71
2022/07/05 02:44:17;;;;;;;3.38;2.55;;;12.00;99.90;;;;;;4908784;29;20694;-73
2022/07/05 02:46:43;;;;;;;3.28;2.63;;;12.00;99.90;;;;;;4919540;29;20547;-71
2022/07/05 02:49:08;;;;;;;2.03;1.90;;;13.10;99.90;;;;;;4908278;29;20047;-72
2022/07/05 02:51:34;;;;;;;3.55;3.20;;;12.40;99.90;;;;;;4908374;29;20619;-73
2022/07/05 02:54:00;;;;;;;3.88;3.17;;;11.90;99.90;;;;;;4909368;29;20461;-72
2022/07/05 02:56:25;;;;;;;4.47;2.35;;;11.90;99.90;;;;;;4913320;29;20239;-72
2022/07/05 02:58:51;;;;;;;3.40;2.65;;;11.80;99.90;;;;;;4927497;28;20051;-72
2022/07/05 03:01:17;;;;;;;4.05;2.30;;;11.80;99.90;;;;;;4924018;29;20066;-72
2022/07/05 03:03:42;;;;;;;2.50;2.30;;;12.20;99.90;;;;;;4913912;29;20090;-72
2022/07/05 03:06:08;;;;;;;3.28;2.50;;;11.60;99.90;;;;;;4931859;28;20093;-72
2022/07/05 03:08:34;;;;;;;2.67;2.47;;;11.70;99.90;;;;;;4934403;28;20130;-73
2022/07/05 03:11:00;;;;;;;4.28;3.03;;;11.70;99.90;;;;;;4922254;29;20526;-72
2022/07/05 03:13:25;;;;;;;3.47;2.70;;;11.80;99.90;;;;;;4928451;29;20054;-72
2022/07/05 03:15:51;;;;;;;3.97;3.10;;;11.80;99.90;;;;;;4918202;29;20059;-73
2022/07/05 03:18:17;;;;;;;3.45;3.13;;;11.80;99.90;;;;;;4914843;29;20047;-74
2022/07/05 03:20:42;;;;;;;3.35;3.05;;;11.70;99.90;;;;;;4925189;29;20521;-72
2022/07/05 03:23:08;;;;;;;3.42;2.97;;;11.70;99.90;;;;;;4928857;29;20047;-71
2022/07/05 03:25:34;;;;;;;3.55;3.25;;;11.70;99.90;;;;;;4924742;29;20055;-72
2022/07/05 03:27:59;;;;;;;3.33;2.88;;;11.70;99.90;;;;;;4918593;28;20094;-72
2022/07/05 03:30:25;;;;;;;3.78;3.28;;;11.70;99.90;;;;;;4929098;29;20420;-71
2022/07/05 03:32:51;;;;;;;5.43;3.00;;;11.70;99.90;;;;;;4928621;29;20492;-71
2022/07/05 03:35:16;;;;;;;7.30;3.05;;;11.70;99.90;;;;;;4931223;29;20054;-73
2022/07/05 03:37:42;;;;;;;3.45;2.38;;;11.60;99.90;;;;;;4918779;29;20055;-72
2022/07/05 03:40:08;;;;;;;3.70;3.13;;;11.70;99.90;;;;;;4925194;28;20091;-72
2022/07/05 03:42:35;;;;;;;3.03;2.78;;;11.70;99.90;;;;;;4930357;28;20052;-71
2022/07/05 03:45:01;;;;;;;3.47;2.92;;;11.70;99.90;;;;;;4921544;29;20390;-72
2022/07/05 03:47:27;;;;;;;3.50;2.67;;;11.70;99.90;;;;;;4917983;29;20058;-74
2022/07/05 03:49:54;;;;;;;3.65;3.13;;;11.70;99.90;;;;;;4919518;29;20044;-72
2022/07/05 03:52:20;;;;;;;3.63;3.05;;;11.70;99.90;;;;;;4928691;29;20076;-71
2022/07/05 03:54:45;;;;;;;6.22;4.00;;;11.70;99.90;;;;;;4920699;29;20476;-72
2022/07/05 03:57:12;;;;;;;3.20;2.90;;;11.70;99.90;;;;;;4917282;29;20047;-73
2022/07/05 03:59:39;;;;;;;6.43;3.38;;;11.70;99.90;;;;;;4926679;29;20154;-72
2022/07/05 04:02:05;;;;;;;5.30;3.50;;;11.80;99.90;;;;;;4929979;28;20043;-73
2022/07/05 04:04:30;;;;;;;3.50;3.20;;;11.80;99.90;;;;;;4920851;29;20062;-74
2022/07/05 04:06:56;;;;;;;4.90;3.33;;;11.90;99.90;;;;;;4919885;29;20051;-72
2022/07/05 04:09:22;;;;;;;4.97;3.40;;;11.90;99.90;;;;;;4920435;29;20085;-71
2022/07/05 04:11:47;;;;;;;3.83;3.38;;;11.90;99.90;;;;;;4922907;29;20140;-73
2022/07/05 04:14:13;;;;;;;5.82;4.22;;;12.00;99.90;;;;;;4918590;29;20050;-73
2022/07/05 04:16:39;;;;;;;3.78;3.28;;;12.00;99.90;;;;;;4926290;29;21228;-72
2022/07/05 04:19:04;;;;;;;3.80;3.05;;;12.10;99.90;;;;;;4925829;29;20802;-72
2022/07/05 04:21:30;;;;;;;3.63;3.05;;;12.10;99.90;;;;;;4919776;28;20048;-72
2022/07/05 04:23:56;;;;;;;4.65;4.25;;;12.10;99.90;;;;;;4915421;29;20056;-72
2022/07/05 04:26:21;;;;;;;7.10;4.32;;;12.10;99.90;;;;;;4916079;29;20094;-72
2022/07/05 04:28:47;;;;;;;4.95;4.15;;;12.10;99.90;;;;;;4913917;29;20174;-72
2022/07/05 04:31:13;;;;;;;5.43;4.38;;;12.20;99.90;;;;;;4905833;29;20591;-71
2022/07/05 04:33:39;;;;;;;4.95;3.80;;;12.30;99.90;;;;;;4934958;28;20081;-72
2022/07/05 04:36:05;;;;;;;4.13;3.67;;;12.40;99.90;;;;;;4921265;29;20050;-72
2022/07/05 04:38:31;;;;;;;7.22;4.57;;;12.40;99.90;;;;;;4919020;29;20413;-71
2022/07/05 04:40:57;;;;;;;7.20;4.60;;;12.50;99.90;;;;;;4910584;29;20052;-73
2022/07/05 04:43:22;;;;;;;5.35;4.70;;;12.60;99.90;;;;;;4909174;29;20138;-72
2022/07/05 04:45:48;;;;;;;4.22;3.83;;;12.70;99.90;;;;;;4913638;29;20115;-74
2022/07/05 04:48:14;;;;;;;4.03;3.72;;;12.80;99.90;;;;;;4915470;29;20159;-72
2022/07/05 04:50:40;;;;;;;6.45;5.05;;;13.00;99.90;;;;;;4915244;29;20436;-72
2022/07/05 04:53:05;;;;;;;5.28;4.18;;;13.10;99.90;;;;;;4903136;29;20072;-73
2022/07/05 04:55:31;;;;;;;5.28;4.10;;;13.20;99.90;;;;;;4913718;29;20139;-72
2022/07/05 04:57:57;;;;;;;5.05;3.95;;;13.30;99.90;;;;;;4909475;29;20184;-72
2022/07/05 05:00:23;;;;;;;9.70;5.32;;;13.40;99.90;;;;;;4907758;29;20048;-72
2022/07/05 05:02:48;;;;;;;5.57;4.53;;;13.50;99.90;;;;;;4911389;29;20135;-73
2022/07/05 05:05:14;;;;;;;5.70;5.00;;;13.60;99.90;;;;;;4917708;29;20054;-72
2022/07/05 05:07:43;;;;;;;6.50;4.43;;;13.70;99.90;;;;;;4910886;29;20047;-72
2022/07/05 05:10:10;;;;;;;6.10;4.85;;;13.80;99.90;;;;;;4913321;29;20867;-74
2022/07/05 05:12:36;;;;;;;5.63;4.78;;;13.80;99.90;;;;;;4924536;28;20051;-73
2022/07/05 05:15:02;;;;;;;7.82;5.60;;;13.80;99.90;;;;;;4915392;29;20159;-72
2022/07/05 05:17:38;;;;;;;5.95;4.43;;;13.90;99.90;;;;;;4918516;29;20056;-72
2022/07/05 05:20:07;;;;;;;5.80;4.55;;;13.90;99.90;;;;;;4925384;29;20051;-72
2022/07/05 05:22:32;;;;;;;5.40;4.38;;;13.90;99.90;;;;;;4928605;29;20601;-74
2022/07/05 05:24:58;;;;;;;5.05;4.38;;;14.00;99.90;;;;;;4927835;29;20134;-72
2022/07/05 05:27:24;;;;;;;4.07;3.60;;;14.00;99.90;;;;;;4918033;29;20052;-75
2022/07/05 05:29:49;;;;;;;5.10;3.83;;;14.10;99.90;;;;;;4918843;29;20066;-72
2022/07/05 05:32:15;;;;;;;5.88;4.72;;;14.20;99.90;;;;;;4918582;29;20086;-74
2022/07/05 05:34:41;;;;;;;5.40;4.60;;;14.20;99.90;;;;;;4917352;29;20642;-72
2022/07/05 05:37:06;;;;;;;5.00;3.80;;;14.30;99.90;;;;;;4916739;29;20048;-73
2022/07/05 05:39:32;;;;;;;6.93;4.97;;;14.40;99.90;;;;;;4915417;29;20055;-72
2022/07/05 05:41:57;;;;;;;6.00;4.30;;;14.50;99.90;;;;;;4924619;28;20397;-72
2022/07/05 05:44:23;;;;;;;8.07;5.30;;;14.60;99.90;;;;;;4907380;29;20055;-75
2022/07/05 05:46:49;;;;;;;4.78;3.72;;;14.70;99.90;;;;;;4911688;29;20804;-72
2022/07/05 05:49:14;;;;;;;7.00;5.53;;;14.80;99.90;;;;;;4917438;29;20051;-74
2022/07/05 05:51:40;;;;;;;5.05;4.43;;;14.90;99.90;;;;;;4910865;29;20559;-72
2022/07/05 05:54:06;;;;;;;6.07;4.03;;;15.00;99.90;;;;;;4904481;29;20623;-75
2022/07/05 05:56:31;;;;;;;4.90;4.13;;;15.10;99.90;;;;;;4907610;29;20668;-72
2022/07/05 05:58:57;;;;;;;3.65;3.30;;;15.20;99.90;;;;;;4921091;29;20179;-72
2022/07/05 06:01:23;;;;;;;3.00;2.70;;;15.40;99.90;;;;;;4917230;29;20574;-71
2022/07/05 06:03:48;;;;;;;4.50;3.10;;;15.50;99.90;;;;;;4912465;29;20056;-72
2022/07/05 06:06:14;;;;;;;3.50;3.20;;;15.60;99.90;;;;;;4922138;29;20064;-71
2022/07/05 06:08:40;;;;;;;3.75;2.97;;;15.80;99.90;;;;;;4918225;29;20461;-71
2022/07/05 06:11:05;;;;;;;3.28;2.47;;;15.90;99.90;;;;;;4924651;29;20047;-71
2022/07/05 06:13:32;;;;;;;6.03;3.22;;;16.10;99.90;;;;;;4922010;29;20066;-71
2022/07/05 06:15:57;;;;;;;3.80;2.83;;;16.20;99.90;;;;;;4922238;29;20047;-71
2022/07/05 06:18:23;;;;;;;4.03;2.28;;;16.40;99.90;;;;;;4922587;29;20069;-71
2022/07/05 06:20:49;;;;;;;2.35;1.85;;;16.50;99.90;;;;;;4921626;29;20047;-71
2022/07/05 06:23:14;;;;;;;4.60;1.90;;;16.70;99.90;;;;;;4922809;29;20714;-72
2022/07/05 06:25:40;;;;;;;3.55;2.03;;;17.30;99.90;;;;;;4921506;29;20048;-71
2022/07/05 06:28:08;;;;;;;2.10;1.80;;;18.50;99.90;;;;;;4922160;29;20862;-73
2022/07/05 06:30:36;;;;;;;2.05;1.63;;;19.90;99.90;;;;;;4921650;29;20067;-74
2022/07/05 06:33:02;;;;;;;4.88;1.65;;;21.10;99.90;;;;;;4921681;28;20106;-71
2022/07/05 06:35:29;;;;;;;2.10;1.50;;;21.80;99.90;;;;;;4914361;29;20063;-73
2022/07/05 06:38:01;;;;;;;2.38;1.52;;;22.70;99.90;;;;;;4925505;29;20054;-73
2022/07/05 06:40:28;;;;;;;;;;;23.40;98.80;;;;;;4929407;29;20058;-73
2022/07/05 06:42:56;;;;;;;3.13;1.52;;;23.60;93.10;;;;;;4917368;29;20549;-73
2022/07/05 06:45:21;;;;;;;4.60;1.23;;;24.30;99.90;;;;;;4915169;29;20118;-72
2022/07/05 06:47:54;;;;;;;1.88;1.02;;;24.90;99.90;;;;;;4915596;29;20047;-71
2022/07/05 06:50:20;;;;;;;;;;;25.50;96.60;;;;;;4910608;29;20091;-72
2022/07/05 06:52:45;;;;;;;1.90;1.38;;;25.70;90.10;;;;;;4913700;29;20049;-72
2022/07/05 06:55:11;;;;;;;1.35;1.25;;;25.90;97.70;;;;;;4912970;29;20048;-73
2022/07/05 06:57:37;;;;;;;2.67;1.30;;;26.00;96.20;;;;;;4930330;29;20055;-75
2022/07/05 07:00:04;;;;;;;3.28;1.27;;;26.00;95.10;;;;;;4926487;28;20051;-72
2022/07/05 07:02:30;;;;;;;2.65;1.35;;;26.10;93.20;;;;;;4914753;29;20052;-71
2022/07/05 07:04:55;;;;;;;2.00;0.93;;;26.10;93.00;;;;;;4909093;29;20063;-73
2022/07/05 07:10:05;;;;;;;1.70;1.25;;;26.50;91.30;;;;;;4920099;29;20083;-72
2022/07/05 07:12:31;;;;;;;1.38;0.90;;;26.50;91.30;;;;;;4910705;29;20938;-73
2022/07/05 07:14:57;;;;;;;2.17;1.05;;;26.60;90.50;;;;;;4912098;29;20059;-75
2022/07/05 07:17:25;;;;;;;1.70;1.10;;;26.40;89.90;;;;;;4919875;29;20048;-72
2022/07/05 07:19:51;;;;;;;2.35;1.15;;;26.50;86.90;;;;;;4910506;29;20055;-76
2022/07/05 07:22:17;;;;;;;2.05;0.90;;;26.50;87.60;;;;;;4918154;29;20579;-74
2022/07/05 07:24:42;;;;;;;2.47;1.17;;;26.40;87.10;;;;;;4915369;29;20446;-73
2022/07/05 07:27:08;;;;;;;2.13;1.02;;;26.40;86.00;;;;;;4910521;29;20402;-73
2022/07/05 07:29:36;;;;;;;3.05;1.05;;;25.90;87.00;;;;;;4910178;29;20064;-72
2022/07/05 07:32:03;;;;;;;1.35;0.63;;;26.30;85.90;;;;;;4915119;29;20095;-72
2022/07/05 07:34:29;;;;;;;4.28;1.48;;;25.80;83.60;;;;;;4920122;29;20083;-72
2022/07/05 07:36:56;;;;;;;2.72;1.17;;;25.10;84.30;;;;;;4913275;29;20468;-73
2022/07/05 07:39:22;;;;;;;3.97;1.30;;;24.80;86.40;;;;;;4913917;29;20075;-73
2022/07/05 07:41:48;;;;;;;4.13;1.10;;;24.10;86.80;;;;;;4906524;28;20051;-72
2022/07/05 07:44:14;;;;;;;1.38;0.80;;;23.40;88.40;;;;;;4906480;29;20056;-74
2022/07/05 07:46:40;;;;;;;0.95;0.80;;;23.00;89.30;;;;;;4911387;29;20047;-72
2022/07/05 07:49:06;;;;;;;1.75;0.80;;;22.20;90.20;;;;;;4921635;29;20058;-72
2022/07/05 07:51:33;;;;;;;3.08;1.40;;;21.80;90.70;;;;;;4917144;29;20712;-71
2022/07/05 07:53:59;;;;;;;4.22;1.48;;;21.60;91.40;;;;;;4905942;29;20059;-73
2022/07/05 07:56:25;;;;;;;1.65;1.15;;;21.40;91.80;;;;;;4910860;29;20134;-72
2022/07/05 07:58:51;;;;;;;2.58;1.05;;;21.60;92.00;;;;;;4929721;29;20047;-71
2022/07/05 08:01:17;;;;;;;1.60;1.23;;;21.90;91.30;;;;;;4920609;29;20559;-74
2022/07/05 08:03:43;;;;;;;1.90;1.00;;;23.80;90.40;;;;;;4921629;29;20055;-72
2022/07/05 08:06:10;;;;;;;1.23;0.90;;;24.70;89.10;;;;;;4912711;29;21322;-73
2022/07/05 08:08:38;;;;;;;2.95;1.00;;;25.60;87.70;;;;;;4929418;29;20051;-73
2022/07/05 08:11:04;;;;;;;3.90;0.93;;;25.80;86.90;;;;;;4916679;29;20155;-73
2022/07/05 08:13:30;;;;;;;2.17;1.02;;;25.10;86.30;;;;;;4912432;29;20055;-73
2022/07/05 08:15:57;;;;;;;4.18;1.27;;;24.10;86.70;;;;;;4908882;29;20126;-73
2022/07/05 08:23:51;;;;;;;2.80;1.13;;;22.60;90.20;;;;;;4919032;29;20055;-73
2022/07/05 08:26:16;;;;;;;2.97;1.02;;;22.40;90.30;;;;;;4912342;29;20051;-74
2022/07/05 08:28:42;;;;;;;0.98;0.80;;;22.10;89.80;;;;;;4916338;29;20048;-74
2022/07/05 08:31:08;;;;;;;1.58;1.17;;;22.10;90.20;;;;;;4911726;29;20070;-72
2022/07/05 08:33:34;;;;;;;2.22;1.02;;;22.40;90.00;;;;;;4920919;29;20149;-73
2022/07/05 08:35:59;;;;;;;1.80;1.13;;;23.10;89.90;;;;;;4911780;29;20079;-72
2022/07/05 08:38:25;;;;;;;3.13;1.00;;;23.90;88.70;;;;;;4925456;29;20043;-72
2022/07/05 08:40:54;;;;;;;3.97;1.23;;;24.40;88.20;;;;;;4917880;28;20115;-71
2022/07/05 08:43:22;;;;;;;2.92;0.88;;;25.00;84.20;;;;;;4918519;29;20056;-72
2022/07/05 08:45:49;;;;;;;1.52;1.17;;;25.40;86.60;;;;;;4919144;29;20085;-73
2022/07/05 08:48:20;;;;;;;1.73;0.80;;;25.90;85.20;;;;;;4915462;29;20043;-72
2022/07/05 08:50:50;;;;;;;4.97;1.27;;;25.60;83.00;;;;;;4918794;29;20214;-74
2022/07/05 08:53:19;;;;;;;4.68;1.42;;;24.90;84.60;;;;;;4914405;29;20107;-73
2022/07/05 08:55:45;;;;;;;4.22;1.65;;;24.10;86.00;;;;;;4916500;29;20236;-73
2022/07/05 08:58:12;;;;;;;1.67;0.93;;;23.40;86.20;;;;;;4913037;29;20059;-72
2022/07/05 09:00:39;;;;;;;2.38;0.82;;;22.80;86.70;;;;;;4924133;28;20502;-72
2022/07/05 09:03:06;;;;;;;0.90;0.82;;;22.60;86.50;;;;;;4917887;29;20940;-71
2022/07/05 09:05:39;;;;;;;3.38;1.30;;;22.30;87.60;;;;;;4912469;29;20055;-72
2022/07/05 09:08:08;;;;;;;1.70;0.98;;;22.40;87.30;;;;;;4911558;29;20064;-71
2022/07/05 09:10:36;;;;;;;1.83;1.02;;;23.10;87.90;;;;;;4910415;29;20044;-71
2022/07/05 09:13:02;;;;;;;1.50;0.85;;;23.00;87.70;;;;;;4909534;29;20937;-74
2022/07/05 09:15:27;;;;;;;3.90;0.85;;;23.20;87.50;;;;;;4918371;29;20047;-73
2022/07/05 09:17:53;;;;;;;1.90;1.17;;;23.40;86.60;;;;;;4903982;29;20044;-72
2022/07/05 09:20:19;;;;;;;3.83;1.30;;;23.60;86.30;;;;;;4920387;28;20051;-72
2022/07/05 09:22:52;;;;;;;3.15;1.00;;;24.40;85.60;;;;;;4909389;28;20048;-72
2022/07/05 09:25:18;;;;;;;2.42;0.80;;;24.90;81.20;;;;;;4927156;29;20051;-73
2022/07/05 09:27:51;;;;;;;1.15;1.05;;;25.60;83.40;;;;;;4909201;29;20059;-72
2022/07/05 09:30:33;;;;;;;1.35;0.93;;;25.50;80.50;;;;;;4913462;29;20126;-75
2022/07/05 09:33:09;;;;;;;1.25;0.90;;;24.90;78.00;;;;;;4918769;29;20048;-72
2022/07/05 09:35:40;;;;;;;1.30;0.80;;;24.40;80.30;;;;;;4927964;29;20091;-72
2022/07/05 09:38:14;;;;;;;2.70;1.10;;;24.20;82.10;;;;;;4927501;29;20075;-72
2022/07/05 09:40:51;;;;;;;4.13;1.00;;;24.40;81.30;;;;;;4905759;29;20056;-71
2022/07/05 09:43:25;;;;;;;1.42;0.80;;;24.70;77.70;;;;;;4916708;29;20226;-74
2022/07/05 09:45:55;;;;;;;1.67;0.80;;;25.10;80.10;;;;;;4929768;29;20175;-71
2022/07/05 09:48:21;;;;;;;2.22;0.80;;;25.30;79.80;;;;;;4917363;28;20048;-72
2022/07/05 09:50:48;;;;;;;0.70;0.70;;;25.90;80.20;;;;;;4917365;29;20091;-75
2022/07/05 09:53:14;;;;;;;1.30;1.00;;;25.90;76.90;;;;;;4938734;29;20083;-72
2022/07/05 09:55:40;;;;;;;2.30;1.08;;;25.80;77.30;;;;;;4915774;28;20833;-74
2022/07/05 09:58:07;;;;;;;2.92;0.93;;;26.20;77.80;;;;;;4914896;29;21040;-73
2022/07/05 10:00:32;;;;;;;3.67;1.15;;;26.40;77.40;;;;;;4922293;29;20151;-74
2022/07/05 10:03:01;;;;;;;2.13;0.93;;;26.20;76.80;;;;;;4918625;29;20047;-74
2022/07/05 10:05:32;;;;;;;1.02;0.93;;;25.80;74.40;;;;;;4918928;29;20071;-73
2022/07/05 10:08:00;;;;;;;1.15;0.90;;;25.60;76.10;;;;;;4925300;29;20052;-74
2022/07/05 10:10:30;;;;;;;2.42;0.80;;;25.40;76.60;;;;;;4928114;28;20079;-73
2022/07/05 10:13:02;;;;;;;1.20;0.90;;;25.40;74.60;;;;;;4915833;29;20052;-73
2022/07/05 10:15:35;;;;;;;6.05;1.00;;;25.00;75.60;;;;;;4921225;29;20102;-74
2022/07/05 10:18:22;;;;;;;1.67;1.00;;;24.90;75.50;;;;;;4919472;29;20163;-72
2022/07/05 10:20:51;;;;;;;1.63;1.00;;;25.00;76.50;;;;;;4917794;28;20040;-74
2022/07/05 10:23:18;;;;;;;2.85;1.00;;;24.70;77.30;;;;;;4911203;29;20044;-74
2022/07/05 10:25:49;;;;;;;2.70;1.05;;;24.40;77.50;;;;;;4920603;29;20059;-72
2022/07/05 10:28:21;;;;;;;3.55;1.25;;;23.70;76.50;;;;;;4916033;29;20396;-74
2022/07/05 10:30:50;;;;;;;1.60;1.10;;;23.40;78.50;;;;;;4908901;29;20067;-73
2022/07/05 10:33:21;;;;;;;0.95;0.90;;;23.10;79.30;;;;;;4920120;29;20043;-72
2022/07/05 10:35:47;;;;;;;2.42;0.88;;;23.20;80.40;;;;;;4915366;29;20466;-71
2022/07/05 10:38:14;;;;;;;5.97;1.33;;;23.10;80.30;;;;;;4916688;29;20631;-74
2022/07/05 10:40:46;;;;;;;3.13;1.25;;;23.00;81.00;;;;;;4917208;29;20066;-72
2022/07/05 10:43:13;;;;;;;1.30;1.00;;;22.90;82.00;;;;;;4907033;29;20171;-73
2022/07/05 10:45:46;;;;;;;3.67;1.02;;;22.80;82.20;;;;;;4916582;29;20064;-75
2022/07/05 10:48:15;;;;;;;2.05;1.08;;;22.80;80.80;;;;;;4915719;29;20052;-73
2022/07/05 10:50:57;;;;;;;3.75;1.27;;;22.70;80.70;;;;;;4906244;29;20586;-72
2022/07/05 10:53:29;;;;;;;1.73;0.90;;;22.60;80.90;;;;;;4906479;29;20039;-71
2022/07/05 10:56:04;;;;;;;;;;;22.70;81.00;;;;;;4908832;29;20051;-71
2022/07/05 10:58:39;;;;;;;2.28;1.02;;;22.80;83.30;;;;;;4918364;29;20455;-73
2022/07/05 11:01:20;;;;;;;1.23;0.80;;;22.80;81.60;;;;;;4920761;29;20052;-72
2022/07/05 11:04:00;;;;;;;2.00;1.10;;;23.00;83.80;;;;;;4922329;29;20139;-73
2022/07/05 11:06:28;;;;;;;2.45;0.98;;;22.80;79.80;;;;;;4917987;29;20447;-73
2022/07/05 11:09:00;;;;;;;0.93;0.88;;;22.90;80.80;;;;;;4922380;29;20058;-72
2022/07/05 11:11:27;;;;;;;0.80;0.80;;;23.10;81.80;;;;;;4921078;29;20169;-71
2022/07/05 11:13:54;;;;;;;2.58;1.10;;;23.40;80.40;;;;;;4933823;28;20047;-72
2022/07/05 11:16:24;;;;;;;3.80;1.92;;;23.60;79.30;;;;;;4910701;29;20491;-72
2022/07/05 11:18:51;;;;;;;1.38;1.25;;;24.00;80.10;;;;;;4913591;29;20475;-71
2022/07/05 11:21:21;;;;;;;1.90;0.80;;;24.10;77.00;;;;;;4927084;29;20051;-74
2022/07/05 11:23:48;;;;;;;2.50;1.13;;;24.10;74.80;;;;;;4919825;29;20051;-71
2022/07/05 11:26:18;;;;;;;1.73;0.98;;;24.10;76.40;;;;;;4919970;29;20048;-73
2022/07/05 11:28:45;;;;;;;2.70;0.90;;;24.20;76.70;;;;;;4915305;29;20051;-73
2022/07/05 11:31:11;;;;;;;2.88;0.85;;;24.40;77.10;;;;;;4917622;29;20055;-72
2022/07/05 11:33:44;;;;;;;2.08;1.48;;;24.40;77.20;;;;;;4919018;29;20059;-75
2022/07/05 11:36:25;;;;;;;;;;;24.50;77.20;;;;;;4916863;29;20524;-73
2022/07/05 11:39:12;;;;;;;1.38;0.90;;;24.10;77.20;;;;;;4921351;29;19961;-72
2022/07/05 11:41:41;;;;;;;5.35;1.00;;;24.10;77.40;;;;;;4917953;29;20127;-72
2022/07/05 11:44:10;;;;;;;1.92;0.93;;;23.90;78.30;;;;;;4920173;29;20083;-73
2022/07/05 11:46:36;;;;;;;1.27;1.02;;;23.60;77.80;;;;;;4917371;29;20055;-73
2022/07/05 11:49:02;;;;;;;2.13;0.95;;;23.20;78.80;;;;;;4913336;29;20044;-73
2022/07/05 11:51:28;;;;;;;1.52;1.10;;;23.10;78.80;;;;;;4909773;29;20516;-73
2022/07/05 11:53:54;;;;;;;1.30;1.02;;;23.00;78.30;;;;;;4913940;29;20087;-73
2022/07/05 11:56:20;;;;;;;1.33;0.88;;;23.10;78.30;;;;;;4907792;29;20063;-77
2022/07/05 11:58:45;;;;;;;1.00;0.70;;;23.10;78.10;;;;;;4911181;29;20130;-76
2022/07/05 12:01:11;;;;;;;0.85;0.60;;;22.90;75.50;;;;;;4914596;29;20047;-73
2022/07/05 12:03:39;;;;;;;2.60;1.20;;;22.70;76.30;;;;;;4924397;29;20043;-76
2022/07/05 12:06:15;;;;;;;1.45;0.80;;;22.80;77.50;;;;;;4914468;28;20052;-72
2022/07/05 12:08:41;;;;;;;0.82;0.60;;;23.00;76.60;;;;;;4909317;29;20047;-71
2022/07/05 12:13:55;;;;;;;1.33;0.80;;;23.70;77.00;;;;;;4916918;29;20044;-71
2022/07/05 12:16:21;;;;;;;1.40;0.75;;;23.90;76.40;;;;;;4918254;29;20514;-74
2022/07/05 12:18:51;;;;;;;0.80;0.80;;;24.00;74.50;;;;;;4921083;29;20205;-74
2022/07/05 12:21:20;;;;;;;1.90;0.70;;;23.90;74.80;;;;;;4915905;29;20051;-75
2022/07/05 12:23:46;;;;;;;1.33;1.23;;;24.10;75.20;;;;;;4917654;29;20657;-76
2022/07/05 12:26:13;;;;;;;1.98;1.30;;;24.00;74.90;;;;;;4918947;29;20054;-73
2022/07/05 12:28:40;;;;;;;3.28;1.20;;;23.60;75.70;;;;;;4923624;29;20055;-74
2022/07/05 12:31:15;;;;;;;4.93;1.42;;;23.00;79.40;;;;;;4914882;29;20055;-73
2022/07/05 12:33:41;;;;;;;6.70;1.45;;;22.70;83.20;;;;;;4920595;29;20130;-71
2022/07/05 12:36:12;;;;;;;2.28;1.13;;;22.70;83.80;;;;;;4922028;29;20241;-73
2022/07/05 12:38:37;;;;;;;6.35;1.30;;;22.90;85.20;;;;;;4915334;28;20052;-71
2022/07/05 12:41:03;;;;;;;6.78;0.90;;;23.00;82.90;;;;;;4916252;29;20054;-74
2022/07/05 12:43:29;;;;;;;3.75;1.27;;;23.10;83.30;;;;;;4920174;29;20052;-71
2022/07/05 12:46:03;;;;;;;6.53;1.25;;;23.00;82.10;;;;;;4914447;29;20056;-74
2022/07/05 12:48:37;;;;;;;6.93;1.00;;;22.80;82.20;;;;;;4911359;29;20510;-73
2022/07/05 12:51:04;;;;;;;3.42;0.98;;;22.80;82.40;;;;;;4913166;29;20044;-71
2022/07/05 12:59:02;;;;;;;5.07;1.30;;;22.20;84.10;;;;;;4916169;29;20062;-71
2022/07/05 13:01:31;;;;;;;2.67;1.27;;;22.30;83.90;;;;;;4910395;29;20052;-72
2022/07/05 13:04:09;;;;;;;1.38;0.93;;;22.40;83.90;;;;;;4922049;29;20492;-72
2022/07/05 13:06:55;;;;;;;3.47;1.20;;;22.60;84.00;;;;;;4914411;28;20500;-74